Gallatin Field
KBZN : now visible

Airfield :











YOU CAN JOIN US ON...

 
LOGIN :

Register | Disclaimer

   EN    FR    IT 

 









Legend :    VFR   Marginal VFR   IFR   Intensive IFR   Very Intensive IFR
Visi :
Ceiling :
>= 8 km
>= 3000ft
5 to 8 km
1000 to 3000 ft
1500m to 5 km
500 to 1000 ft
800 to 1500m
200 to 500 ft
< 800m
< 200 ft
Symbols :   Thunderstorms  Fog  Heavy snow  Heavy precipitations  Wind > 20 kt






- Airport Elevation : 4473 ft
- IATA code : BZN


KBZN - Gallatin Field

CURRENT METAR :
  • 161056Z AUTO 15008KT 10SM CLR 11/04 A3015 RMK AO2 SLP169 T01060044

EXPIRED METARs :
  • 160956Z AUTO 11007KT 10SM CLR 12/05 A3013 RMK AO2 SLP161 T01170050
  • 160856Z AUTO 19006KT 10SM CLR 16/04 A3012 RMK AO2 SLP153 T01560044 51008
  • 160756Z AUTO 16009KT 10SM CLR 13/06 A3011 RMK AO2 SLP153 T01280056
  • 160656Z AUTO 13007KT 10SM CLR 16/05 A3011 RMK AO2 SLP150 T01560050 403440150

TAF KBZN
Valid from the 16 at 06:00 until the 17 at 12:00 UTC


160540Z 1606/1712 15008KT P6SM FEW120
FM162100 33008KT P6SM SCT150
FM170400 10007KT P6SM FEW150
KZLC FIR / North America



MET'MAP, your aeronautical weather chart ! - Copyright ORBIFLY December 2007 - Disclaimer

ORBIFLY MET'MAP TEAM :

Programming & Development : Alexandra Zaïnal
Original concept : Baudouin d'Aumeries
Technical & hardware support : Manuel Goepfert
Assistance : Marc-Olivier Méhu




SOURCES & CREDITS :

   NOAA       Earth
Advisory